createdAt,value
2023-04-15T00:00:53.213Z,82.59
2023-04-15T00:01:53.256Z,82.69
2023-04-15T00:02:53.285Z,82.48
2023-04-15T00:03:53.191Z,82.59
2023-04-15T00:04:53.219Z,82.69
2023-04-15T00:05:53.145Z,81.76
2023-04-15T00:06:53.193Z,81.29
2023-04-15T00:07:53.151Z,81.60
2023-04-15T00:08:53.128Z,82.11
2023-04-15T00:09:53.096Z,82.42
2023-04-15T00:10:53.091Z,82.21
2023-04-15T00:11:53.078Z,82.42
2023-04-15T00:12:53.086Z,82.53
2023-04-15T00:13:53.056Z,82.42
2023-04-15T00:14:53.050Z,82.77
2023-04-15T00:15:53.031Z,83.35
2023-04-15T00:16:53.068Z,83.39
2023-04-15T00:17:53.047Z,82.83
2023-04-15T00:18:53.004Z,82.93
2023-04-15T00:19:53.012Z,82.73
2023-04-15T00:20:52.980Z,82.73
2023-04-15T00:21:52.966Z,82.77
2023-04-15T00:22:52.960Z,82.67
2023-04-15T00:23:52.959Z,82.67
2023-04-15T00:24:52.944Z,83.65
2023-04-15T00:25:52.927Z,82.97
2023-04-15T00:26:52.913Z,83.49
2023-04-15T00:27:52.899Z,83.80
2023-04-15T00:28:52.887Z,83.59
2023-04-15T00:29:52.890Z,83.90
2023-04-15T00:30:52.938Z,84.21
2023-04-15T00:31:52.856Z,84.05
2023-04-15T00:32:52.926Z,84.05
2023-04-15T00:33:52.832Z,83.73
2023-04-15T00:34:52.833Z,83.84
2023-04-15T00:35:52.811Z,83.94
2023-04-15T00:36:52.790Z,84.25
2023-04-15T00:37:52.780Z,83.94
2023-04-15T00:38:52.776Z,83.84
2023-04-15T00:39:52.786Z,84.35
2023-04-15T00:40:52.754Z,84.66
2023-04-15T00:41:52.744Z,84.14
2023-04-15T00:42:52.769Z,83.94
2023-04-15T00:43:52.719Z,84.19
2023-04-15T00:44:52.730Z,84.59
2023-04-15T00:45:52.737Z,84.35
2023-04-15T00:46:52.738Z,84.59
2023-04-15T00:47:52.764Z,85.01
2023-04-15T00:48:52.711Z,84.80
2023-04-15T00:49:52.674Z,84.91
2023-04-15T00:50:52.653Z,84.91
2023-04-15T00:51:52.621Z,85.01
2023-04-15T00:52:52.622Z,85.11
2023-04-15T00:53:52.624Z,84.91
2023-04-15T00:54:52.592Z,84.84
2023-04-15T00:55:52.627Z,84.70
2023-04-15T00:56:52.573Z,85.42
2023-04-15T00:57:52.570Z,85.36
2023-04-15T00:58:52.557Z,85.67
2023-04-15T00:59:52.580Z,85.31
2023-04-15T01:00:52.537Z,85.57
2023-04-15T01:01:52.619Z,85.15
2023-04-15T01:02:52.720Z,85.31
2023-04-15T01:03:52.548Z,85.36
2023-04-15T01:04:52.499Z,85.36
2023-04-15T01:05:52.469Z,85.25
2023-04-15T01:06:52.457Z,85.36
2023-04-15T01:07:52.450Z,85.46
2023-04-15T01:08:52.437Z,85.57
2023-04-15T01:09:52.434Z,85.25
2023-04-15T01:10:52.418Z,85.22
2023-04-15T01:11:52.431Z,85.25
2023-04-15T01:12:52.393Z,85.25
2023-04-15T01:13:52.376Z,85.36
2023-04-15T01:14:52.378Z,84.74
2023-04-15T01:15:52.390Z,84.84
2023-04-15T01:16:52.358Z,84.84
2023-04-15T01:17:52.335Z,85.36
2023-04-15T01:18:52.323Z,85.60
2023-04-15T01:19:52.340Z,85.46
2023-04-15T01:20:52.300Z,85.25
2023-04-15T01:21:52.285Z,85.46
2023-04-15T01:22:52.308Z,86.08
2023-04-15T01:23:52.268Z,86.08
2023-04-15T01:24:52.265Z,86.70
2023-04-15T01:25:52.234Z,86.80
2023-04-15T01:26:52.230Z,87.01
2023-04-15T01:27:52.235Z,86.29
2023-04-15T01:28:52.307Z,85.67
2023-04-15T01:29:52.204Z,85.77
2023-04-15T01:30:52.257Z,85.36
2023-04-15T01:31:52.337Z,85.46
2023-04-15T01:32:52.275Z,85.36
2023-04-15T01:33:52.145Z,85.67
2023-04-15T01:34:52.219Z,86.08
2023-04-15T01:35:52.140Z,86.18
2023-04-15T01:36:52.126Z,86.02
2023-04-15T01:37:52.109Z,85.67
2023-04-15T01:38:52.099Z,85.09
2023-04-15T01:39:52.093Z,85.50
2023-04-15T01:40:52.076Z,85.71
2023-04-15T01:41:52.055Z,86.12
2023-04-15T01:42:52.059Z,86.22
2023-04-15T01:43:52.056Z,86.32
2023-04-15T01:44:52.078Z,86.32
2023-04-15T01:45:52.043Z,87.05
2023-04-15T01:46:52.125Z,87.26
2023-04-15T01:47:52.048Z,86.94
2023-04-15T01:48:51.987Z,86.74
2023-04-15T01:49:51.977Z,87.35
2023-04-15T01:50:51.965Z,86.84
2023-04-15T01:51:51.966Z,86.53
2023-04-15T01:52:51.941Z,87.46
2023-04-15T01:53:51.927Z,87.08
2023-04-15T01:54:51.923Z,86.78
2023-04-15T01:55:51.906Z,86.78
2023-04-15T01:56:51.923Z,86.88
2023-04-15T01:57:51.895Z,86.88
2023-04-15T01:58:51.883Z,87.29
2023-04-15T01:59:51.876Z,87.29
2023-04-15T02:00:51.884Z,87.29
2023-04-15T02:01:51.863Z,87.40
2023-04-15T02:02:51.861Z,87.29
2023-04-15T02:03:51.849Z,87.40
2023-04-15T02:04:51.810Z,86.68
2023-04-15T02:05:51.792Z,87.29
2023-04-15T02:06:51.791Z,87.50
2023-04-15T02:07:51.785Z,87.40
2023-04-15T02:08:51.760Z,87.60
2023-04-15T02:09:51.746Z,86.98
2023-04-15T02:10:51.742Z,87.19
2023-04-15T02:11:51.744Z,87.29
2023-04-15T02:12:51.723Z,86.88
2023-04-15T02:13:51.706Z,87.50
2023-04-15T02:14:51.713Z,87.50
2023-04-15T02:15:51.700Z,87.40
2023-04-15T02:16:51.775Z,86.57
2023-04-15T02:17:51.694Z,87.29
2023-04-15T02:18:51.678Z,86.98
2023-04-15T02:19:51.639Z,86.82
2023-04-15T02:20:51.620Z,86.61
2023-04-15T02:21:51.610Z,86.51
2023-04-15T02:22:51.597Z,86.41
2023-04-15T02:23:53.969Z,87.23
2023-04-15T02:24:51.578Z,87.23
2023-04-15T02:25:53.529Z,87.02
2023-04-15T02:26:51.553Z,87.23
2023-04-15T02:27:51.542Z,87.02
2023-04-15T02:28:51.528Z,87.23
2023-04-15T02:29:51.559Z,87.13
2023-04-15T02:30:51.509Z,87.58
2023-04-15T02:31:51.531Z,87.37
2023-04-15T02:32:51.497Z,87.79
2023-04-15T02:33:51.475Z,87.68
2023-04-15T02:34:51.458Z,87.27
2023-04-15T02:35:51.477Z,87.68
2023-04-15T02:36:51.441Z,87.58
2023-04-15T02:37:51.431Z,87.68
2023-04-15T02:38:51.432Z,87.68
2023-04-15T02:39:51.425Z,87.68
2023-04-15T02:40:51.405Z,87.10
2023-04-15T02:41:51.391Z,87.37
2023-04-15T02:42:51.368Z,87.83
2023-04-15T02:43:51.367Z,87.68
2023-04-15T02:44:51.355Z,87.89
2023-04-15T02:45:51.432Z,87.58
2023-04-15T02:46:51.370Z,87.58
2023-04-15T02:47:51.350Z,87.58
2023-04-15T02:48:51.313Z,87.68
2023-04-15T02:49:51.287Z,87.89
2023-04-15T02:50:51.948Z,87.79
2023-04-15T02:51:51.269Z,87.93
2023-04-15T02:52:51.252Z,87.62
2023-04-15T02:53:51.256Z,87.89
2023-04-15T02:54:51.228Z,87.48
2023-04-15T02:55:51.239Z,88.10
2023-04-15T02:56:51.215Z,87.99
2023-04-15T02:57:51.214Z,88.10
2023-04-15T02:58:51.194Z,88.14
2023-04-15T02:59:51.185Z,88.34
2023-04-15T03:00:51.160Z,88.14
2023-04-15T03:01:51.305Z,88.04
2023-04-15T03:02:51.258Z,88.24
2023-04-15T03:03:51.237Z,88.45
2023-04-15T03:04:51.162Z,88.55
2023-04-15T03:05:51.109Z,88.76
2023-04-15T03:06:51.092Z,88.92
2023-04-15T03:07:51.084Z,88.65
2023-04-15T03:08:51.077Z,88.76
2023-04-15T03:09:51.066Z,88.86
2023-04-15T03:10:51.051Z,88.86
2023-04-15T03:11:51.036Z,88.96
2023-04-15T03:12:51.024Z,88.76
2023-04-15T03:13:51.024Z,89.13
2023-04-15T03:14:51.014Z,88.55
2023-04-15T03:15:51.053Z,89.17
2023-04-15T03:16:50.977Z,88.34
2023-04-15T03:17:50.996Z,88.45
2023-04-15T03:18:50.954Z,88.76
2023-04-15T03:19:50.989Z,88.55
2023-04-15T03:20:50.933Z,88.55
2023-04-15T03:21:50.933Z,88.45
2023-04-15T03:22:50.916Z,88.65
2023-04-15T03:23:50.908Z,88.96
2023-04-15T03:24:50.887Z,88.55
2023-04-15T03:25:50.886Z,88.96
2023-04-15T03:26:50.864Z,89.17
2023-04-15T03:27:50.870Z,89.52
2023-04-15T03:28:50.846Z,89.48
2023-04-15T03:29:50.836Z,89.07
2023-04-15T03:30:50.857Z,88.76
2023-04-15T03:31:50.819Z,88.39
2023-04-15T03:32:50.824Z,88.28
2023-04-15T03:33:50.791Z,88.90
2023-04-15T03:34:50.767Z,88.49
2023-04-15T03:35:50.788Z,89.42
2023-04-15T03:36:50.782Z,88.39
2023-04-15T03:37:50.744Z,89.11
2023-04-15T03:38:50.734Z,89.11
2023-04-15T03:39:50.720Z,89.22
2023-04-15T03:40:50.722Z,89.11
2023-04-15T03:41:50.700Z,89.32
2023-04-15T03:42:50.705Z,89.32
2023-04-15T03:43:50.678Z,89.73
2023-04-15T03:44:50.664Z,89.94
2023-04-15T03:45:50.654Z,89.62
2023-04-15T03:46:50.667Z,89.32
2023-04-15T03:47:50.663Z,89.52
2023-04-15T03:48:50.617Z,89.52
2023-04-15T03:49:50.607Z,89.22
2023-04-15T03:50:50.591Z,89.25
2023-04-15T03:51:50.612Z,89.42
2023-04-15T03:52:51.367Z,89.62
2023-04-15T03:53:50.564Z,89.32
2023-04-15T03:54:50.545Z,89.32
2023-04-15T03:55:50.550Z,89.73
2023-04-15T03:56:50.525Z,89.87
2023-04-15T03:57:50.541Z,89.56
2023-04-15T03:58:50.509Z,89.36
2023-04-15T03:59:50.499Z,89.67
2023-04-15T04:00:50.480Z,89.56
2023-04-15T04:01:50.551Z,89.36
2023-04-15T04:02:50.588Z,89.36
2023-04-15T04:03:50.602Z,89.36
2023-04-15T04:04:50.689Z,89.46
2023-04-15T04:05:50.418Z,89.46
2023-04-15T04:06:50.410Z,89.36
2023-04-15T04:07:50.427Z,89.87
2023-04-15T04:08:50.387Z,89.98
2023-04-15T04:09:50.384Z,90.08
2023-04-15T04:10:50.368Z,90.08
2023-04-15T04:11:50.356Z,89.77
2023-04-15T04:12:50.350Z,89.67
2023-04-15T04:13:50.332Z,89.98
2023-04-15T04:14:50.354Z,89.67
2023-04-15T04:15:50.326Z,89.29
2023-04-15T04:16:50.364Z,89.15
2023-04-15T04:17:50.318Z,89.50
2023-04-15T04:18:50.269Z,89.19
2023-04-15T04:19:50.290Z,89.46
2023-04-15T04:20:50.248Z,89.56
2023-04-15T04:21:50.249Z,89.56
2023-04-15T04:22:50.235Z,89.61
2023-04-15T04:23:50.237Z,89.56
2023-04-15T04:24:50.203Z,89.40
2023-04-15T04:25:50.215Z,89.71
2023-04-15T04:26:50.185Z,89.56
2023-04-15T04:27:50.171Z,89.77
2023-04-15T04:28:50.162Z,89.71
2023-04-15T04:29:50.146Z,90.02
2023-04-15T04:30:50.154Z,90.19
2023-04-15T04:31:50.155Z,89.77
2023-04-15T04:32:50.178Z,89.67
2023-04-15T04:33:50.103Z,89.98
2023-04-15T04:34:50.099Z,89.81
2023-04-15T04:35:50.092Z,89.71
2023-04-15T04:36:50.078Z,89.87
2023-04-15T04:37:50.064Z,90.02
2023-04-15T04:38:50.043Z,90.60
2023-04-15T04:39:50.115Z,89.98
2023-04-15T04:40:50.031Z,89.77
2023-04-15T04:41:50.018Z,89.98
2023-04-15T04:42:49.992Z,90.12
2023-04-15T04:43:49.998Z,89.67
2023-04-15T04:44:50.011Z,89.92
2023-04-15T04:45:50.021Z,89.77
2023-04-15T04:46:49.999Z,89.87
2023-04-15T04:47:50.002Z,89.81
2023-04-15T04:48:49.926Z,89.98
2023-04-15T04:49:49.937Z,90.70
2023-04-15T04:50:49.901Z,90.19
2023-04-15T04:51:49.895Z,90.60
2023-04-15T04:52:49.906Z,90.39
2023-04-15T04:53:49.886Z,90.29
2023-04-15T04:54:49.865Z,90.39
2023-04-15T04:55:49.874Z,90.39
2023-04-15T04:56:49.842Z,90.50
2023-04-15T04:57:49.845Z,90.29
2023-04-15T04:58:49.821Z,90.39
2023-04-15T04:59:49.801Z,90.29
2023-04-15T05:00:49.820Z,89.98
2023-04-15T05:01:49.798Z,90.29
2023-04-15T05:02:49.930Z,90.04
2023-04-15T05:03:49.831Z,90.25
2023-04-15T05:04:49.753Z,90.66
2023-04-15T05:05:49.768Z,90.80
2023-04-15T05:06:49.729Z,90.87
2023-04-15T05:07:49.719Z,91.53
2023-04-15T05:08:49.701Z,91.38
2023-04-15T05:09:49.691Z,91.28
2023-04-15T05:10:49.678Z,91.53
2023-04-15T05:11:49.737Z,90.91
2023-04-15T05:12:49.690Z,90.77
2023-04-15T05:13:49.649Z,90.77
2023-04-15T05:14:49.634Z,90.91
2023-04-15T05:15:49.698Z,90.66
2023-04-15T05:16:49.609Z,90.77
2023-04-15T05:17:57.218Z,90.66
2023-04-15T05:18:49.594Z,90.66
2023-04-15T05:19:49.593Z,90.66
2023-04-15T05:20:49.578Z,90.70
2023-04-15T05:21:49.585Z,90.25
2023-04-15T05:22:49.555Z,90.66
2023-04-15T05:23:49.539Z,90.56
2023-04-15T05:24:49.538Z,90.77
2023-04-15T05:25:49.512Z,90.97
2023-04-15T05:26:49.519Z,91.17
2023-04-15T05:27:49.514Z,91.28
2023-04-15T05:28:49.481Z,90.97
2023-04-15T05:29:49.471Z,91.28
2023-04-15T05:30:49.496Z,91.11
2023-04-15T05:31:49.471Z,91.49
2023-04-15T05:32:49.516Z,91.17
2023-04-15T05:33:49.428Z,91.17
2023-04-15T05:34:49.409Z,90.87
2023-04-15T05:35:49.404Z,90.97
2023-04-15T05:36:49.394Z,91.28
2023-04-15T05:37:49.390Z,91.28
2023-04-15T05:38:49.390Z,91.13
2023-04-15T05:39:49.358Z,91.28
2023-04-15T05:40:49.343Z,90.97
2023-04-15T05:41:49.351Z,91.03
2023-04-15T05:42:49.333Z,91.65
2023-04-15T05:43:49.332Z,91.24
2023-04-15T05:44:49.312Z,91.24
2023-04-15T05:45:49.305Z,91.55
2023-04-15T05:46:49.288Z,91.34
2023-04-15T05:47:49.307Z,91.24
2023-04-15T05:48:49.248Z,90.93
2023-04-15T05:49:49.252Z,91.55
2023-04-15T05:50:49.233Z,91.55
2023-04-15T05:51:49.243Z,91.55
2023-04-15T05:52:49.212Z,91.24
2023-04-15T05:53:49.212Z,91.30
2023-04-15T05:54:49.187Z,91.71
2023-04-15T05:55:49.170Z,91.50
2023-04-15T05:56:49.158Z,91.82
2023-04-15T05:57:49.169Z,91.82
2023-04-15T05:58:49.167Z,91.82
2023-04-15T05:59:49.157Z,91.61
2023-04-15T06:00:49.121Z,91.40
2023-04-15T06:01:49.175Z,91.61
2023-04-15T06:02:49.132Z,91.92
2023-04-15T06:03:49.245Z,91.71
2023-04-15T06:04:49.135Z,92.33
2023-04-15T06:05:49.060Z,92.64
2023-04-15T06:06:49.045Z,92.80
2023-04-15T06:07:49.057Z,92.02
2023-04-15T06:08:49.047Z,92.29
2023-04-15T06:09:49.029Z,92.19
2023-04-15T06:10:49.008Z,92.40
2023-04-15T06:11:48.991Z,92.50
2023-04-15T06:12:48.975Z,92.19
2023-04-15T06:13:48.972Z,92.29
2023-04-15T06:14:48.964Z,92.19
2023-04-15T06:15:48.988Z,92.29
2023-04-15T06:16:48.934Z,92.35
2023-04-15T06:17:48.951Z,92.55
2023-04-15T06:18:48.914Z,93.01
2023-04-15T06:19:48.917Z,92.86
2023-04-15T06:20:48.901Z,92.86
2023-04-15T06:21:48.875Z,92.46
2023-04-15T06:22:48.885Z,92.76
2023-04-15T06:23:48.850Z,92.72
2023-04-15T06:24:48.859Z,92.66
2023-04-15T06:25:48.828Z,92.61
2023-04-15T06:26:48.820Z,92.31
2023-04-15T06:27:48.819Z,92.82
2023-04-15T06:28:48.818Z,92.41
2023-04-15T06:29:48.782Z,92.82
2023-04-15T06:30:48.793Z,92.82
2023-04-15T06:31:48.875Z,92.93
2023-04-15T06:32:48.770Z,92.47
2023-04-15T06:33:48.741Z,93.19
2023-04-15T06:34:48.764Z,93.50
2023-04-15T06:35:48.724Z,93.50
2023-04-15T06:36:48.736Z,93.09
2023-04-15T06:37:48.700Z,93.15
2023-04-15T06:38:48.678Z,93.25
2023-04-15T06:39:48.679Z,93.25
2023-04-15T06:40:48.683Z,92.53
2023-04-15T06:41:48.661Z,92.84
2023-04-15T06:42:48.636Z,92.43
2023-04-15T06:43:48.646Z,92.33
2023-04-15T06:44:48.629Z,92.33
2023-04-15T06:45:48.659Z,92.43
2023-04-15T06:46:48.613Z,92.84
2023-04-15T06:47:48.645Z,92.53
2023-04-15T06:48:48.582Z,92.12
2023-04-15T06:49:48.567Z,92.12
2023-04-15T06:50:48.559Z,92.02
2023-04-15T06:51:48.537Z,92.12
2023-04-15T06:52:48.529Z,92.18
2023-04-15T06:53:48.504Z,92.18
2023-04-15T06:54:48.504Z,92.08
2023-04-15T06:55:48.482Z,91.97
2023-04-15T06:56:48.488Z,92.18
2023-04-15T06:57:48.473Z,92.59
2023-04-15T06:58:48.506Z,92.34
2023-04-15T06:59:48.446Z,92.44
2023-04-15T07:00:48.457Z,92.55
2023-04-15T07:01:48.455Z,92.14
2023-04-15T07:02:48.418Z,92.10
2023-04-15T07:03:48.458Z,92.30
2023-04-15T07:04:48.382Z,92.14
2023-04-15T07:05:48.395Z,91.99
2023-04-15T07:06:48.458Z,91.38
2023-04-15T07:07:48.349Z,91.38
2023-04-15T07:08:48.338Z,91.17
2023-04-15T07:09:48.331Z,91.17
2023-04-15T07:10:48.318Z,91.38
2023-04-15T07:11:48.332Z,91.06
2023-04-15T07:12:48.297Z,91.06
2023-04-15T07:13:48.300Z,91.06
2023-04-15T07:14:48.277Z,91.47
2023-04-15T07:15:48.261Z,91.47
2023-04-15T07:16:48.314Z,91.06
2023-04-15T07:17:48.286Z,91.06
2023-04-15T07:18:48.256Z,91.17
2023-04-15T07:19:48.236Z,91.27
2023-04-15T07:20:48.260Z,90.81
2023-04-15T07:21:48.231Z,91.33
2023-04-15T07:22:48.188Z,91.64
2023-04-15T07:23:48.199Z,92.01
2023-04-15T07:24:48.158Z,92.32
2023-04-15T07:25:48.153Z,92.21
2023-04-15T07:26:48.145Z,90.98
2023-04-15T07:27:48.145Z,90.98
2023-04-15T07:28:48.113Z,90.88
2023-04-15T07:29:48.106Z,91.08
2023-04-15T07:30:48.152Z,91.19
2023-04-15T07:31:48.090Z,90.88
2023-04-15T07:32:48.149Z,90.98
2023-04-15T07:33:48.077Z,90.47
2023-04-15T07:34:48.079Z,90.67
2023-04-15T07:35:48.053Z,90.88
2023-04-15T07:36:48.022Z,91.23
2023-04-15T07:37:48.034Z,91.13
2023-04-15T07:38:48.001Z,90.92
2023-04-15T07:39:48.015Z,90.72
2023-04-15T07:40:47.978Z,90.78
2023-04-15T07:41:47.964Z,91.08
2023-04-15T07:42:47.958Z,90.78
2023-04-15T07:43:47.955Z,91.19
2023-04-15T07:44:47.948Z,91.29
2023-04-15T07:45:47.937Z,91.19
2023-04-15T07:46:47.911Z,91.19
2023-04-15T07:47:47.945Z,91.19
2023-04-15T07:48:47.891Z,91.19
2023-04-15T07:49:47.876Z,91.04
2023-04-15T07:50:47.891Z,91.14
2023-04-15T07:51:47.882Z,90.94
2023-04-15T07:52:47.858Z,90.73
2023-04-15T07:53:47.832Z,90.73
2023-04-15T07:54:47.822Z,90.36
2023-04-15T07:55:47.824Z,90.57
2023-04-15T07:56:47.806Z,91.19
2023-04-15T07:57:47.783Z,91.04
2023-04-15T07:58:47.792Z,90.83
2023-04-15T07:59:47.767Z,90.42
2023-04-15T08:00:47.755Z,90.73
2023-04-15T08:01:47.854Z,90.94
2023-04-15T08:02:47.813Z,90.32
2023-04-15T08:03:47.829Z,89.97
2023-04-15T08:04:47.867Z,90.28
2023-04-15T08:05:47.693Z,90.48
2023-04-15T08:06:47.688Z,90.08
2023-04-15T08:07:47.699Z,89.72
2023-04-15T08:08:47.674Z,89.62
2023-04-15T08:09:47.672Z,89.72
2023-04-15T08:10:47.644Z,89.58
2023-04-15T08:11:47.631Z,89.52
2023-04-15T08:12:47.628Z,89.07
2023-04-15T08:13:47.604Z,89.37
2023-04-15T08:14:47.615Z,89.11
2023-04-15T08:15:47.645Z,89.31
2023-04-15T08:16:47.578Z,88.96
2023-04-15T08:17:47.593Z,88.96
2023-04-15T08:18:47.561Z,89.31
2023-04-15T08:19:47.543Z,88.66
2023-04-15T08:20:47.533Z,88.86
2023-04-15T08:21:47.521Z,88.96
2023-04-15T08:22:47.522Z,89.17
2023-04-15T08:23:47.508Z,89.33
2023-04-15T08:24:47.493Z,89.84
2023-04-15T08:25:47.476Z,89.64
2023-04-15T08:26:47.463Z,89.43
2023-04-15T08:27:47.450Z,88.82
2023-04-15T08:28:47.451Z,89.13
2023-04-15T08:29:47.432Z,88.62
2023-04-15T08:30:47.433Z,88.72
2023-04-15T08:31:47.456Z,88.82
2023-04-15T08:32:47.651Z,88.51
2023-04-15T08:33:47.379Z,88.10
2023-04-15T08:34:47.409Z,87.73
2023-04-15T08:35:47.367Z,87.22
2023-04-15T08:36:47.349Z,87.53
2023-04-15T08:37:47.340Z,88.29
2023-04-15T08:38:47.324Z,88.24
2023-04-15T08:39:47.342Z,88.39
2023-04-15T08:40:47.308Z,87.77
2023-04-15T08:41:47.303Z,88.29
2023-04-15T08:42:47.298Z,88.49
2023-04-15T08:43:47.269Z,88.59
2023-04-15T08:44:47.271Z,89.01
2023-04-15T08:45:47.283Z,89.01
2023-04-15T08:46:47.298Z,89.07
2023-04-15T08:47:47.255Z,89.07
2023-04-15T08:48:47.214Z,89.17
2023-04-15T08:49:47.208Z,88.86
2023-04-15T08:50:47.196Z,88.66
2023-04-15T08:51:47.196Z,88.72
2023-04-15T08:52:47.178Z,88.82
2023-04-15T08:53:47.165Z,88.72
2023-04-15T08:54:47.169Z,88.57
2023-04-15T08:55:47.150Z,88.27
2023-04-15T08:56:47.175Z,88.23
2023-04-15T08:57:47.144Z,87.30
2023-04-15T08:58:47.111Z,86.99
2023-04-15T08:59:47.085Z,86.93
2023-04-15T09:00:47.101Z,86.90
2023-04-15T09:01:47.121Z,86.79
2023-04-15T09:02:47.215Z,86.18
2023-04-15T09:03:47.102Z,86.69
2023-04-15T09:04:47.033Z,86.73
2023-04-15T09:05:47.035Z,86.52
2023-04-15T09:06:47.024Z,86.63
2023-04-15T09:07:47.019Z,86.48
2023-04-15T09:08:46.991Z,87.10
2023-04-15T09:09:47.008Z,87.30
2023-04-15T09:10:46.977Z,87.57
2023-04-15T09:11:47.027Z,86.96
2023-04-15T09:12:46.948Z,87.06
2023-04-15T09:13:46.938Z,86.55
2023-04-15T09:14:46.955Z,85.56
2023-04-15T09:15:46.910Z,86.04
2023-04-15T09:16:49.229Z,86.07
2023-04-15T09:17:46.889Z,85.42
2023-04-15T09:18:46.882Z,85.25
2023-04-15T09:19:46.859Z,85.52
2023-04-15T09:20:46.857Z,85.63
2023-04-15T09:21:46.872Z,85.93
2023-04-15T09:22:46.838Z,86.14
2023-04-15T09:23:46.817Z,85.42
2023-04-15T09:24:46.818Z,84.91
2023-04-15T09:25:46.810Z,85.05
2023-04-15T09:26:46.803Z,84.84
2023-04-15T09:27:46.827Z,84.74
2023-04-15T09:28:46.762Z,84.84
2023-04-15T09:29:46.793Z,85.05
2023-04-15T09:30:48.136Z,85.25
2023-04-15T09:31:46.740Z,85.46
2023-04-15T09:32:46.741Z,85.25
2023-04-15T09:33:46.708Z,86.38
2023-04-15T09:34:46.721Z,85.52
2023-04-15T09:35:46.685Z,86.14
2023-04-15T09:36:47.694Z,86.30
2023-04-15T09:37:46.660Z,85.48
2023-04-15T09:38:46.647Z,84.77
2023-04-15T09:39:46.631Z,83.98
2023-04-15T09:40:46.643Z,84.77
2023-04-15T09:41:46.614Z,84.91
2023-04-15T09:42:48.124Z,85.11
2023-04-15T09:43:46.640Z,84.66
2023-04-15T09:44:46.597Z,84.46
2023-04-15T09:45:46.632Z,84.46
2023-04-15T09:46:46.564Z,84.15
2023-04-15T09:47:46.598Z,84.15
2023-04-15T09:48:46.534Z,84.25
2023-04-15T09:49:46.565Z,83.13
2023-04-15T09:50:46.524Z,83.33
2023-04-15T09:51:57.566Z,84.11
2023-04-15T09:52:47.502Z,83.44
2023-04-15T09:53:46.471Z,83.64
2023-04-15T09:54:46.463Z,84.19
2023-04-15T09:55:46.453Z,84.39
2023-04-15T09:56:46.456Z,84.39
2023-04-15T09:57:46.466Z,84.29
2023-04-15T09:58:46.424Z,84.91
2023-04-15T09:59:46.435Z,84.87
2023-04-15T10:00:46.404Z,84.19
2023-04-15T10:01:46.439Z,84.91
2023-04-15T10:02:46.494Z,85.01
2023-04-15T10:03:46.542Z,84.91
2023-04-15T10:04:46.391Z,84.91
2023-04-15T10:05:46.359Z,85.01
2023-04-15T10:06:46.340Z,84.80
2023-04-15T10:07:46.340Z,84.80
2023-04-15T10:08:46.309Z,84.70
2023-04-15T10:09:46.316Z,84.91
2023-04-15T10:10:46.286Z,84.91
2023-04-15T10:11:46.286Z,84.91
2023-04-15T10:12:46.312Z,85.22
2023-04-15T10:13:46.278Z,85.01
2023-04-15T10:14:46.274Z,84.70
2023-04-15T10:15:46.277Z,84.80
2023-04-15T10:16:46.225Z,84.70
2023-04-15T10:17:46.335Z,84.91
2023-04-15T10:18:46.221Z,84.91
2023-04-15T10:19:46.193Z,84.50
2023-04-15T10:20:46.179Z,84.50
2023-04-15T10:21:46.181Z,84.50
2023-04-15T10:22:46.165Z,85.01
2023-04-15T10:23:46.140Z,85.42
2023-04-15T10:24:46.145Z,85.31
2023-04-15T10:25:46.120Z,84.80
2023-04-15T10:26:46.116Z,84.80
2023-04-15T10:27:46.094Z,84.80
2023-04-15T10:28:46.085Z,85.31
2023-04-15T10:29:46.097Z,85.42
2023-04-15T10:30:46.071Z,85.42
2023-04-15T10:31:46.192Z,86.24
2023-04-15T10:32:46.113Z,85.63
2023-04-15T10:33:46.043Z,85.52
2023-04-15T10:34:46.025Z,85.31
2023-04-15T10:35:46.021Z,85.42
2023-04-15T10:36:45.992Z,85.42
2023-04-15T10:37:46.005Z,85.11
2023-04-15T10:38:45.967Z,84.46
2023-04-15T10:39:45.968Z,84.97
2023-04-15T10:40:45.951Z,84.50
2023-04-15T10:41:45.954Z,84.91
2023-04-15T10:42:45.931Z,84.80
2023-04-15T10:43:45.919Z,84.77
2023-04-15T10:44:45.902Z,84.97
2023-04-15T10:45:45.898Z,84.60
2023-04-15T10:46:45.969Z,84.50
2023-04-15T10:47:45.967Z,84.29
2023-04-15T10:48:45.859Z,84.80
2023-04-15T10:49:45.855Z,85.11
2023-04-15T10:50:45.861Z,85.22
2023-04-15T10:51:45.843Z,84.70
2023-04-15T10:52:45.818Z,84.80
2023-04-15T10:53:45.870Z,84.70
2023-04-15T10:54:45.799Z,84.80
2023-04-15T10:55:45.781Z,84.91
2023-04-15T10:56:45.787Z,85.01
2023-04-15T10:57:45.756Z,85.11
2023-04-15T10:58:45.749Z,85.52
2023-04-15T10:59:45.763Z,85.52
2023-04-15T11:00:45.747Z,85.58
2023-04-15T11:01:45.731Z,86.14
2023-04-15T11:02:45.814Z,85.01
2023-04-15T11:03:45.955Z,85.28
2023-04-15T11:04:45.755Z,84.66
2023-04-15T11:05:45.679Z,84.46
2023-04-15T11:06:45.681Z,84.87
2023-04-15T11:07:45.646Z,85.48
2023-04-15T11:08:45.643Z,85.38
2023-04-15T11:09:45.624Z,84.97
2023-04-15T11:10:45.607Z,85.07
2023-04-15T11:11:46.463Z,85.07
2023-04-15T11:12:45.616Z,84.97
2023-04-15T11:13:45.599Z,85.24
2023-04-15T11:14:45.565Z,85.03
2023-04-15T11:15:45.554Z,85.03
2023-04-15T11:16:45.582Z,85.03
2023-04-15T11:17:46.550Z,84.83
2023-04-15T11:18:52.678Z,84.15
2023-04-15T11:19:45.555Z,84.66
2023-04-15T11:20:45.507Z,84.83
2023-04-15T11:21:45.492Z,84.93
2023-04-15T11:22:45.489Z,84.05
2023-04-15T11:23:45.477Z,84.25
2023-04-15T11:24:45.455Z,84.83
2023-04-15T11:25:45.465Z,84.52
2023-04-15T11:26:45.432Z,84.83
2023-04-15T11:27:45.438Z,84.63
2023-04-15T11:28:45.417Z,84.36
2023-04-15T11:29:45.400Z,83.74
2023-04-15T11:30:45.383Z,84.72
2023-04-15T11:31:45.390Z,84.97
2023-04-15T11:32:45.456Z,85.24
2023-04-15T11:33:45.379Z,84.63
2023-04-15T11:34:45.358Z,85.14
2023-04-15T11:35:45.326Z,85.14
2023-04-15T11:36:45.323Z,85.03
2023-04-15T11:37:45.305Z,86.32
2023-04-15T11:38:45.300Z,86.12
2023-04-15T11:39:45.296Z,86.43
2023-04-15T11:40:47.255Z,85.40
2023-04-15T11:41:45.261Z,85.91
2023-04-15T11:42:49.932Z,85.40
2023-04-15T11:43:45.245Z,84.83
2023-04-15T11:44:45.238Z,84.93
2023-04-15T11:45:45.245Z,85.24
2023-04-15T11:46:45.662Z,85.44
2023-04-15T11:47:45.249Z,85.03
2023-04-15T11:48:45.201Z,85.91
2023-04-15T11:49:45.176Z,85.50
2023-04-15T11:50:45.176Z,85.61
2023-04-15T11:51:45.157Z,85.40
2023-04-15T11:52:45.145Z,84.69
2023-04-15T11:53:45.161Z,84.48
2023-04-15T11:54:45.113Z,84.79
2023-04-15T11:55:45.124Z,84.38
2023-04-15T11:56:45.088Z,84.17
2023-04-15T11:57:45.080Z,84.07
2023-04-15T11:58:45.075Z,83.97
2023-04-15T11:59:45.999Z,84.58
2023-04-15T12:00:45.049Z,84.83
2023-04-15T12:01:45.051Z,84.99
2023-04-15T12:02:45.154Z,84.38
2023-04-15T12:03:45.156Z,84.38
2023-04-15T12:04:45.106Z,84.99
2023-04-15T12:05:45.002Z,84.72
2023-04-15T12:06:45.005Z,84.63
2023-04-15T12:07:44.966Z,84.69
2023-04-15T12:08:44.962Z,84.63
2023-04-15T12:09:44.950Z,84.89
2023-04-15T12:10:44.962Z,84.83
2023-04-15T12:11:44.929Z,84.89
2023-04-15T12:12:44.907Z,85.44
2023-04-15T12:13:44.899Z,85.34
2023-04-15T12:14:44.889Z,85.44
2023-04-15T12:15:44.924Z,84.83
2023-04-15T12:16:49.299Z,85.34
2023-04-15T12:17:51.851Z,85.91
2023-04-15T12:18:45.959Z,86.22
2023-04-15T12:19:44.840Z,85.91
2023-04-15T12:20:44.816Z,85.71
2023-04-15T12:21:44.822Z,86.32
2023-04-15T12:22:44.820Z,85.81
2023-04-15T12:23:44.788Z,85.40
2023-04-15T12:24:44.776Z,85.61
2023-04-15T12:25:44.777Z,85.64
2023-04-15T12:26:44.769Z,86.36
2023-04-15T12:27:44.753Z,86.43
2023-04-15T12:28:44.734Z,86.63
2023-04-15T12:29:44.746Z,86.32
2023-04-15T12:30:44.706Z,85.91
2023-04-15T12:31:44.852Z,85.81
2023-04-15T12:32:44.703Z,86.12
2023-04-15T12:33:44.689Z,86.83
2023-04-15T12:34:44.677Z,87.04
2023-04-15T12:35:44.655Z,86.73
2023-04-15T12:36:44.640Z,86.79
2023-04-15T12:37:44.652Z,85.91
2023-04-15T12:38:44.662Z,85.50
2023-04-15T12:39:44.625Z,85.81
2023-04-15T12:40:44.601Z,86.22
2023-04-15T12:41:44.586Z,86.63
2023-04-15T12:42:44.614Z,86.43
2023-04-15T12:43:44.574Z,86.32
2023-04-15T12:44:44.573Z,86.46
2023-04-15T12:45:44.538Z,86.26
2023-04-15T12:46:44.647Z,86.88
2023-04-15T12:47:44.596Z,86.98
2023-04-15T12:48:44.552Z,87.08
2023-04-15T12:49:44.521Z,87.32
2023-04-15T12:50:44.491Z,87.53
2023-04-15T12:51:44.489Z,87.73
2023-04-15T12:52:44.462Z,87.84